sensor_id;sensor_type;location;lat;lon;timestamp;temperature;humidity
14737;DHT22;7459;53.590;10.062;2023-05-10T00:00:54;16.50;98.50
14737;DHT22;7459;53.590;10.062;2023-05-10T00:03:20;16.40;97.90
14737;DHT22;7459;53.590;10.062;2023-05-10T00:05:46;16.30;99.90
14737;DHT22;7459;53.590;10.062;2023-05-10T00:08:11;16.30;95.00
14737;DHT22;7459;53.590;10.062;2023-05-10T00:10:37;16.20;94.00
14737;DHT22;7459;53.590;10.062;2023-05-10T00:13:03;16.30;99.20
14737;DHT22;7459;53.590;10.062;2023-05-10T00:15:29;16.20;99.10
14737;DHT22;7459;53.590;10.062;2023-05-10T00:17:56;16.10;94.40
14737;DHT22;7459;53.590;10.062;2023-05-10T00:20:22;16.10;94.60
14737;DHT22;7459;53.590;10.062;2023-05-10T00:22:47;16.10;94.70
14737;DHT22;7459;53.590;10.062;2023-05-10T00:25:13;16.10;94.60
14737;DHT22;7459;53.590;10.062;2023-05-10T00:27:39;16.10;94.70
14737;DHT22;7459;53.590;10.062;2023-05-10T00:30:05;16.00;94.70
14737;DHT22;7459;53.590;10.062;2023-05-10T00:32:32;16.00;94.70
14737;DHT22;7459;53.590;10.062;2023-05-10T00:34:58;16.00;95.00
14737;DHT22;7459;53.590;10.062;2023-05-10T00:37:23;16.00;94.90
14737;DHT22;7459;53.590;10.062;2023-05-10T00:39:49;16.00;95.20
14737;DHT22;7459;53.590;10.062;2023-05-10T00:42:15;16.00;95.20
14737;DHT22;7459;53.590;10.062;2023-05-10T00:44:40;16.00;94.90
14737;DHT22;7459;53.590;10.062;2023-05-10T00:47:06;15.90;95.00
14737;DHT22;7459;53.590;10.062;2023-05-10T00:49:32;15.90;95.20
14737;DHT22;7459;53.590;10.062;2023-05-10T00:51:58;15.90;95.30
14737;DHT22;7459;53.590;10.062;2023-05-10T00:54:24;16.00;95.40
14737;DHT22;7459;53.590;10.062;2023-05-10T00:56:51;15.90;95.50
14737;DHT22;7459;53.590;10.062;2023-05-10T00:59:17;15.90;95.20
14737;DHT22;7459;53.590;10.062;2023-05-10T01:01:46;15.90;95.30
14737;DHT22;7459;53.590;10.062;2023-05-10T01:04:13;15.90;95.30
14737;DHT22;7459;53.590;10.062;2023-05-10T01:06:40;15.90;95.50
14737;DHT22;7459;53.590;10.062;2023-05-10T01:09:06;15.90;95.40
14737;DHT22;7459;53.590;10.062;2023-05-10T01:11:34;15.90;95.60
14737;DHT22;7459;53.590;10.062;2023-05-10T01:14:01;15.80;95.70
14737;DHT22;7459;53.590;10.062;2023-05-10T01:16:29;15.80;95.70
14737;DHT22;7459;53.590;10.062;2023-05-10T01:18:57;15.80;95.90
14737;DHT22;7459;53.590;10.062;2023-05-10T01:34:20;15.50;96.00
14737;DHT22;7459;53.590;10.062;2023-05-10T01:37:07;15.50;96.20
14737;DHT22;7459;53.590;10.062;2023-05-10T01:39:50;15.40;96.30
14737;DHT22;7459;53.590;10.062;2023-05-10T01:42:26;15.40;96.20
14737;DHT22;7459;53.590;10.062;2023-05-10T01:48:06;15.30;96.50
14737;DHT22;7459;53.590;10.062;2023-05-10T01:50:36;15.30;96.40
14737;DHT22;7459;53.590;10.062;2023-05-10T01:53:06;15.30;96.70
14737;DHT22;7459;53.590;10.062;2023-05-10T01:55:38;15.30;96.80
14737;DHT22;7459;53.590;10.062;2023-05-10T01:58:09;15.30;96.50
14737;DHT22;7459;53.590;10.062;2023-05-10T02:00:40;15.30;96.80
14737;DHT22;7459;53.590;10.062;2023-05-10T02:03:09;15.30;96.80
14737;DHT22;7459;53.590;10.062;2023-05-10T02:05:36;15.20;96.60
14737;DHT22;7459;53.590;10.062;2023-05-10T02:08:05;15.20;96.90
14737;DHT22;7459;53.590;10.062;2023-05-10T02:10:34;15.20;97.10
14737;DHT22;7459;53.590;10.062;2023-05-10T02:13:02;15.20;97.20
14737;DHT22;7459;53.590;10.062;2023-05-10T02:15:29;15.20;97.30
14737;DHT22;7459;53.590;10.062;2023-05-10T02:17:56;15.20;97.40
14737;DHT22;7459;53.590;10.062;2023-05-10T02:20:24;15.20;97.00
14737;DHT22;7459;53.590;10.062;2023-05-10T02:22:53;15.20;97.00
14737;DHT22;7459;53.590;10.062;2023-05-10T02:25:22;15.10;97.30
14737;DHT22;7459;53.590;10.062;2023-05-10T02:27:49;15.10;97.10
14737;DHT22;7459;53.590;10.062;2023-05-10T02:30:16;15.10;97.30
14737;DHT22;7459;53.590;10.062;2023-05-10T02:32:44;15.10;97.50
14737;DHT22;7459;53.590;10.062;2023-05-10T02:35:10;15.10;97.50
14737;DHT22;7459;53.590;10.062;2023-05-10T02:37:37;15.10;97.60
14737;DHT22;7459;53.590;10.062;2023-05-10T02:40:05;15.00;97.70
14737;DHT22;7459;53.590;10.062;2023-05-10T02:42:35;15.10;97.90
14737;DHT22;7459;53.590;10.062;2023-05-10T02:45:07;15.10;97.80
14737;DHT22;7459;53.590;10.062;2023-05-10T02:47:36;15.00;97.60
14737;DHT22;7459;53.590;10.062;2023-05-10T02:50:02;14.90;97.60
14737;DHT22;7459;53.590;10.062;2023-05-10T02:52:32;14.90;97.90
14737;DHT22;7459;53.590;10.062;2023-05-10T02:55:05;14.90;97.80
14737;DHT22;7459;53.590;10.062;2023-05-10T02:57:35;14.90;98.00
14737;DHT22;7459;53.590;10.062;2023-05-10T03:00:06;14.80;97.90
14737;DHT22;7459;53.590;10.062;2023-05-10T03:02:32;14.70;97.90
14737;DHT22;7459;53.590;10.062;2023-05-10T03:04:58;14.70;98.00
14737;DHT22;7459;53.590;10.062;2023-05-10T03:07:24;14.70;98.30
14737;DHT22;7459;53.590;10.062;2023-05-10T03:09:49;14.70;98.40
14737;DHT22;7459;53.590;10.062;2023-05-10T03:18:21;14.60;98.60
14737;DHT22;7459;53.590;10.062;2023-05-10T03:20:50;14.60;98.60
14737;DHT22;7459;53.590;10.062;2023-05-10T03:23:21;14.60;98.70
14737;DHT22;7459;53.590;10.062;2023-05-10T03:25:48;14.60;98.80
14737;DHT22;7459;53.590;10.062;2023-05-10T03:28:16;14.60;99.00
14737;DHT22;7459;53.590;10.062;2023-05-10T03:30:43;14.60;99.20
14737;DHT22;7459;53.590;10.062;2023-05-10T03:33:09;14.60;99.00
14737;DHT22;7459;53.590;10.062;2023-05-10T03:35:36;14.60;99.00
14737;DHT22;7459;53.590;10.062;2023-05-10T03:38:01;14.60;99.30
14737;DHT22;7459;53.590;10.062;2023-05-10T03:40:28;14.60;99.40
14737;DHT22;7459;53.590;10.062;2023-05-10T03:42:56;14.60;99.20
14737;DHT22;7459;53.590;10.062;2023-05-10T03:45:22;14.50;99.30
14737;DHT22;7459;53.590;10.062;2023-05-10T03:47:48;14.50;99.40
14737;DHT22;7459;53.590;10.062;2023-05-10T03:50:14;14.50;99.20
14737;DHT22;7459;53.590;10.062;2023-05-10T03:52:39;14.50;99.50
14737;DHT22;7459;53.590;10.062;2023-05-10T03:55:06;14.40;99.40
14737;DHT22;7459;53.590;10.062;2023-05-10T03:57:33;14.40;99.50
14737;DHT22;7459;53.590;10.062;2023-05-10T03:59:59;14.40;99.60
14737;DHT22;7459;53.590;10.062;2023-05-10T04:02:25;14.40;99.70
14737;DHT22;7459;53.590;10.062;2023-05-10T04:04:50;14.40;99.70
14737;DHT22;7459;53.590;10.062;2023-05-10T04:07:16;14.40;99.90
14737;DHT22;7459;53.590;10.062;2023-05-10T04:09:42;14.40;99.80
14737;DHT22;7459;53.590;10.062;2023-05-10T04:12:08;14.30;99.70
14737;DHT22;7459;53.590;10.062;2023-05-10T04:14:34;14.30;99.50
14737;DHT22;7459;53.590;10.062;2023-05-10T04:16:59;14.30;99.70
14737;DHT22;7459;53.590;10.062;2023-05-10T04:19:31;14.20;99.70
14737;DHT22;7459;53.590;10.062;2023-05-10T04:21:58;14.20;99.60
14737;DHT22;7459;53.590;10.062;2023-05-10T04:24:24;14.30;99.80
14737;DHT22;7459;53.590;10.062;2023-05-10T04:26:50;14.20;99.80
14737;DHT22;7459;53.590;10.062;2023-05-10T04:29:15;14.20;99.80
14737;DHT22;7459;53.590;10.062;2023-05-10T04:31:41;14.20;99.90
14737;DHT22;7459;53.590;10.062;2023-05-10T04:34:07;14.10;99.90
14737;DHT22;7459;53.590;10.062;2023-05-10T04:36:33;14.10;99.90
14737;DHT22;7459;53.590;10.062;2023-05-10T04:39:00;14.20;99.90
14737;DHT22;7459;53.590;10.062;2023-05-10T04:41:28;14.20;99.90
14737;DHT22;7459;53.590;10.062;2023-05-10T04:43:54;14.30;99.90
14737;DHT22;7459;53.590;10.062;2023-05-10T04:46:20;14.20;99.90
14737;DHT22;7459;53.590;10.062;2023-05-10T04:48:46;14.20;99.90
14737;DHT22;7459;53.590;10.062;2023-05-10T04:51:11;14.10;99.90
14737;DHT22;7459;53.590;10.062;2023-05-10T04:53:37;14.20;99.90
14737;DHT22;7459;53.590;10.062;2023-05-10T04:56:03;14.20;99.90
14737;DHT22;7459;53.590;10.062;2023-05-10T04:58:29;14.20;99.90
14737;DHT22;7459;53.590;10.062;2023-05-10T05:00:55;14.20;99.90
14737;DHT22;7459;53.590;10.062;2023-05-10T05:03:20;14.20;99.90
14737;DHT22;7459;53.590;10.062;2023-05-10T05:05:47;14.20;99.90
14737;DHT22;7459;53.590;10.062;2023-05-10T05:08:13;14.20;99.90
14737;DHT22;7459;53.590;10.062;2023-05-10T05:10:39;14.30;99.90
14737;DHT22;7459;53.590;10.062;2023-05-10T05:13:04;14.30;99.90
14737;DHT22;7459;53.590;10.062;2023-05-10T05:15:30;14.30;99.90
14737;DHT22;7459;53.590;10.062;2023-05-10T05:17:56;14.30;99.90
14737;DHT22;7459;53.590;10.062;2023-05-10T05:20:22;14.40;99.90
14737;DHT22;7459;53.590;10.062;2023-05-10T05:22:48;14.40;99.90
14737;DHT22;7459;53.590;10.062;2023-05-10T05:25:13;14.30;99.90
14737;DHT22;7459;53.590;10.062;2023-05-10T05:27:40;14.30;99.90
14737;DHT22;7459;53.590;10.062;2023-05-10T05:30:07;14.30;99.90
14737;DHT22;7459;53.590;10.062;2023-05-10T05:32:33;14.30;99.90
14737;DHT22;7459;53.590;10.062;2023-05-10T05:34:59;14.30;99.90
14737;DHT22;7459;53.590;10.062;2023-05-10T05:37:25;14.40;99.90
14737;DHT22;7459;53.590;10.062;2023-05-10T05:39:51;14.30;99.90
14737;DHT22;7459;53.590;10.062;2023-05-10T05:42:17;14.40;99.90
14737;DHT22;7459;53.590;10.062;2023-05-10T05:44:44;14.30;99.90
14737;DHT22;7459;53.590;10.062;2023-05-10T05:47:10;14.40;99.90
14737;DHT22;7459;53.590;10.062;2023-05-10T05:49:36;14.30;99.90
14737;DHT22;7459;53.590;10.062;2023-05-10T05:52:03;14.40;99.90
14737;DHT22;7459;53.590;10.062;2023-05-10T05:54:29;14.50;99.90
14737;DHT22;7459;53.590;10.062;2023-05-10T05:56:59;14.50;99.90
14737;DHT22;7459;53.590;10.062;2023-05-10T05:59:26;14.60;99.90
14737;DHT22;7459;53.590;10.062;2023-05-10T06:01:52;14.70;99.90
14737;DHT22;7459;53.590;10.062;2023-05-10T06:04:18;14.60;99.90
14737;DHT22;7459;53.590;10.062;2023-05-10T06:06:44;14.70;99.90
14737;DHT22;7459;53.590;10.062;2023-05-10T06:09:10;14.70;99.90
14737;DHT22;7459;53.590;10.062;2023-05-10T06:11:36;14.70;99.90
14737;DHT22;7459;53.590;10.062;2023-05-10T06:14:03;14.70;99.90
14737;DHT22;7459;53.590;10.062;2023-05-10T06:16:30;14.70;99.90
14737;DHT22;7459;53.590;10.062;2023-05-10T06:18:56;14.80;99.90
14737;DHT22;7459;53.590;10.062;2023-05-10T06:21:22;14.90;99.90
14737;DHT22;7459;53.590;10.062;2023-05-10T06:23:47;14.90;99.90
14737;DHT22;7459;53.590;10.062;2023-05-10T06:26:13;14.90;99.90
14737;DHT22;7459;53.590;10.062;2023-05-10T06:28:39;15.00;99.90
14737;DHT22;7459;53.590;10.062;2023-05-10T06:31:05;15.00;99.90
14737;DHT22;7459;53.590;10.062;2023-05-10T06:33:32;15.10;99.90
14737;DHT22;7459;53.590;10.062;2023-05-10T06:35:58;15.10;99.90
14737;DHT22;7459;53.590;10.062;2023-05-10T06:38:23;15.10;99.90
14737;DHT22;7459;53.590;10.062;2023-05-10T06:40:49;15.00;99.90
14737;DHT22;7459;53.590;10.062;2023-05-10T06:43:15;15.10;99.90
14737;DHT22;7459;53.590;10.062;2023-05-10T06:45:41;15.20;99.90
14737;DHT22;7459;53.590;10.062;2023-05-10T06:48:07;15.10;99.90
14737;DHT22;7459;53.590;10.062;2023-05-10T06:50:33;15.10;99.90
14737;DHT22;7459;53.590;10.062;2023-05-10T06:52:59;15.10;99.90
14737;DHT22;7459;53.590;10.062;2023-05-10T06:55:25;15.00;99.90
14737;DHT22;7459;53.590;10.062;2023-05-10T06:57:52;15.00;99.90
14737;DHT22;7459;53.590;10.062;2023-05-10T07:00:18;15.00;99.90
14737;DHT22;7459;53.590;10.062;2023-05-10T07:02:44;14.90;99.90
14737;DHT22;7459;53.590;10.062;2023-05-10T07:05:10;15.00;99.90
14737;DHT22;7459;53.590;10.062;2023-05-10T07:07:36;14.90;99.90
14737;DHT22;7459;53.590;10.062;2023-05-10T07:10:02;15.00;99.90
14737;DHT22;7459;53.590;10.062;2023-05-10T07:12:28;15.00;99.90
14737;DHT22;7459;53.590;10.062;2023-05-10T07:14:54;15.10;99.90
14737;DHT22;7459;53.590;10.062;2023-05-10T07:17:20;15.10;99.90
14737;DHT22;7459;53.590;10.062;2023-05-10T07:19:45;15.20;99.90
14737;DHT22;7459;53.590;10.062;2023-05-10T07:22:11;15.20;99.90
14737;DHT22;7459;53.590;10.062;2023-05-10T07:24:37;15.30;99.90
14737;DHT22;7459;53.590;10.062;2023-05-10T07:27:03;15.30;99.90
14737;DHT22;7459;53.590;10.062;2023-05-10T07:29:29;15.30;99.90
14737;DHT22;7459;53.590;10.062;2023-05-10T07:31:55;15.30;99.90
14737;DHT22;7459;53.590;10.062;2023-05-10T07:34:21;15.30;99.90
14737;DHT22;7459;53.590;10.062;2023-05-10T07:36:46;15.40;99.90
14737;DHT22;7459;53.590;10.062;2023-05-10T07:39:12;15.40;99.90
14737;DHT22;7459;53.590;10.062;2023-05-10T07:41:38;15.40;99.90
14737;DHT22;7459;53.590;10.062;2023-05-10T07:44:04;15.40;99.90
14737;DHT22;7459;53.590;10.062;2023-05-10T07:46:30;15.40;99.90
14737;DHT22;7459;53.590;10.062;2023-05-10T07:48:56;15.40;99.90
14737;DHT22;7459;53.590;10.062;2023-05-10T07:51:22;15.40;99.90
14737;DHT22;7459;53.590;10.062;2023-05-10T07:53:48;15.50;99.90
14737;DHT22;7459;53.590;10.062;2023-05-10T07:56:31;15.50;99.90
14737;DHT22;7459;53.590;10.062;2023-05-10T07:59:01;15.50;99.90
14737;DHT22;7459;53.590;10.062;2023-05-10T08:01:33;15.60;99.90
14737;DHT22;7459;53.590;10.062;2023-05-10T08:04:00;15.60;99.90
14737;DHT22;7459;53.590;10.062;2023-05-10T08:06:26;15.70;99.90
14737;DHT22;7459;53.590;10.062;2023-05-10T08:08:53;15.70;99.90
14737;DHT22;7459;53.590;10.062;2023-05-10T08:11:23;15.70;99.90
14737;DHT22;7459;53.590;10.062;2023-05-10T08:13:49;15.70;99.90
14737;DHT22;7459;53.590;10.062;2023-05-10T08:16:16;15.70;99.90
14737;DHT22;7459;53.590;10.062;2023-05-10T08:18:43;15.70;99.90
14737;DHT22;7459;53.590;10.062;2023-05-10T08:21:10;15.80;99.90
14737;DHT22;7459;53.590;10.062;2023-05-10T08:23:39;15.80;99.90
14737;DHT22;7459;53.590;10.062;2023-05-10T08:26:05;15.80;99.90
14737;DHT22;7459;53.590;10.062;2023-05-10T08:28:31;15.80;99.90
14737;DHT22;7459;53.590;10.062;2023-05-10T08:30:57;15.80;99.90
14737;DHT22;7459;53.590;10.062;2023-05-10T08:33:23;15.80;99.90
14737;DHT22;7459;53.590;10.062;2023-05-10T08:35:48;15.80;99.90
14737;DHT22;7459;53.590;10.062;2023-05-10T08:38:14;15.90;99.90
14737;DHT22;7459;53.590;10.062;2023-05-10T08:40:42;15.90;99.90
14737;DHT22;7459;53.590;10.062;2023-05-10T08:43:13;15.90;99.90
14737;DHT22;7459;53.590;10.062;2023-05-10T08:45:43;16.00;99.90
14737;DHT22;7459;53.590;10.062;2023-05-10T08:48:11;16.00;99.90
14737;DHT22;7459;53.590;10.062;2023-05-10T08:50:41;16.10;99.90
14737;DHT22;7459;53.590;10.062;2023-05-10T08:53:12;16.10;99.90
14737;DHT22;7459;53.590;10.062;2023-05-10T08:55:39;16.00;99.90
14737;DHT22;7459;53.590;10.062;2023-05-10T08:58:08;16.00;99.90
14737;DHT22;7459;53.590;10.062;2023-05-10T09:00:35;16.00;99.90
14737;DHT22;7459;53.590;10.062;2023-05-10T09:03:04;16.00;99.90
14737;DHT22;7459;53.590;10.062;2023-05-10T09:05:30;15.90;99.90
14737;DHT22;7459;53.590;10.062;2023-05-10T09:07:56;16.00;99.90
14737;DHT22;7459;53.590;10.062;2023-05-10T09:10:22;16.00;99.90
14737;DHT22;7459;53.590;10.062;2023-05-10T09:12:51;16.00;99.90
14737;DHT22;7459;53.590;10.062;2023-05-10T09:15:18;16.10;99.90
14737;DHT22;7459;53.590;10.062;2023-05-10T09:17:47;16.10;99.90
14737;DHT22;7459;53.590;10.062;2023-05-10T09:20:14;16.10;99.90
14737;DHT22;7459;53.590;10.062;2023-05-10T09:22:42;16.20;99.90
14737;DHT22;7459;53.590;10.062;2023-05-10T09:25:15;16.10;99.90
14737;DHT22;7459;53.590;10.062;2023-05-10T09:27:45;16.10;99.90
14737;DHT22;7459;53.590;10.062;2023-05-10T09:30:23;16.20;99.90
14737;DHT22;7459;53.590;10.062;2023-05-10T09:32:54;16.20;99.90
14737;DHT22;7459;53.590;10.062;2023-05-10T09:35:22;16.20;99.90
14737;DHT22;7459;53.590;10.062;2023-05-10T09:37:51;16.30;99.90
14737;DHT22;7459;53.590;10.062;2023-05-10T09:40:23;16.30;99.90
14737;DHT22;7459;53.590;10.062;2023-05-10T09:42:55;16.30;99.90
14737;DHT22;7459;53.590;10.062;2023-05-10T09:45:30;16.40;99.90
14737;DHT22;7459;53.590;10.062;2023-05-10T09:47:57;16.30;99.90
14737;DHT22;7459;53.590;10.062;2023-05-10T09:50:23;16.20;99.90
14737;DHT22;7459;53.590;10.062;2023-05-10T09:52:53;16.20;99.90
14737;DHT22;7459;53.590;10.062;2023-05-10T09:55:25;16.20;99.90
14737;DHT22;7459;53.590;10.062;2023-05-10T09:58:07;16.30;99.90
14737;DHT22;7459;53.590;10.062;2023-05-10T10:00:41;16.30;99.90
14737;DHT22;7459;53.590;10.062;2023-05-10T10:03:18;16.20;99.90
14737;DHT22;7459;53.590;10.062;2023-05-10T10:05:46;16.30;99.90
14737;DHT22;7459;53.590;10.062;2023-05-10T10:08:14;16.30;99.90
14737;DHT22;7459;53.590;10.062;2023-05-10T10:10:41;16.30;99.90
14737;DHT22;7459;53.590;10.062;2023-05-10T10:13:07;16.30;99.90
14737;DHT22;7459;53.590;10.062;2023-05-10T10:15:34;16.10;99.90
14737;DHT22;7459;53.590;10.062;2023-05-10T10:18:01;16.10;99.90
14737;DHT22;7459;53.590;10.062;2023-05-10T10:20:29;16.00;99.90
14737;DHT22;7459;53.590;10.062;2023-05-10T10:22:55;16.00;99.90
14737;DHT22;7459;53.590;10.062;2023-05-10T10:25:21;15.90;99.90
14737;DHT22;7459;53.590;10.062;2023-05-10T10:30:43;15.90;99.90
14737;DHT22;7459;53.590;10.062;2023-05-10T10:36:15;15.80;99.90
14737;DHT22;7459;53.590;10.062;2023-05-10T10:41:35;15.80;99.90
14737;DHT22;7459;53.590;10.062;2023-05-10T10:44:33;15.80;99.90
14737;DHT22;7459;53.590;10.062;2023-05-10T10:55:14;15.70;99.90
14737;DHT22;7459;53.590;10.062;2023-05-10T10:57:53;15.70;99.90
14737;DHT22;7459;53.590;10.062;2023-05-10T11:00:33;15.60;99.90
14737;DHT22;7459;53.590;10.062;2023-05-10T11:03:09;15.50;99.90
14737;DHT22;7459;53.590;10.062;2023-05-10T11:05:49;15.40;99.90
14737;DHT22;7459;53.590;10.062;2023-05-10T11:08:29;15.40;99.90
14737;DHT22;7459;53.590;10.062;2023-05-10T11:13:29;15.40;99.90
14737;DHT22;7459;53.590;10.062;2023-05-10T11:16:16;15.40;99.90
14737;DHT22;7459;53.590;10.062;2023-05-10T11:19:02;15.40;99.90
14737;DHT22;7459;53.590;10.062;2023-05-10T11:24:17;15.30;99.90
14737;DHT22;7459;53.590;10.062;2023-05-10T11:26:46;15.30;99.90
14737;DHT22;7459;53.590;10.062;2023-05-10T11:29:16;15.30;99.90
14737;DHT22;7459;53.590;10.062;2023-05-10T11:31:43;15.30;99.90
14737;DHT22;7459;53.590;10.062;2023-05-10T11:34:10;15.40;99.90
14737;DHT22;7459;53.590;10.062;2023-05-10T11:36:36;15.30;99.90
14737;DHT22;7459;53.590;10.062;2023-05-10T11:39:03;15.20;99.90
14737;DHT22;7459;53.590;10.062;2023-05-10T11:41:30;15.20;99.90
14737;DHT22;7459;53.590;10.062;2023-05-10T11:43:56;15.10;99.90
14737;DHT22;7459;53.590;10.062;2023-05-10T11:46:25;15.10;99.90
14737;DHT22;7459;53.590;10.062;2023-05-10T11:49:01;15.10;99.90
14737;DHT22;7459;53.590;10.062;2023-05-10T11:51:29;15.20;99.90
14737;DHT22;7459;53.590;10.062;2023-05-10T11:54:06;15.30;99.90
14737;DHT22;7459;53.590;10.062;2023-05-10T11:56:33;15.30;99.90
14737;DHT22;7459;53.590;10.062;2023-05-10T11:59:00;15.30;99.90
14737;DHT22;7459;53.590;10.062;2023-05-10T12:01:28;15.40;99.90
14737;DHT22;7459;53.590;10.062;2023-05-10T12:03:56;15.40;99.90
14737;DHT22;7459;53.590;10.062;2023-05-10T12:06:30;15.30;99.90
14737;DHT22;7459;53.590;10.062;2023-05-10T12:08:58;15.40;99.90
14737;DHT22;7459;53.590;10.062;2023-05-10T12:11:28;15.40;99.90
14737;DHT22;7459;53.590;10.062;2023-05-10T12:13:55;15.50;99.90
14737;DHT22;7459;53.590;10.062;2023-05-10T12:16:23;15.40;99.90
14737;DHT22;7459;53.590;10.062;2023-05-10T12:18:52;15.50;99.90
14737;DHT22;7459;53.590;10.062;2023-05-10T12:21:20;15.50;99.90
14737;DHT22;7459;53.590;10.062;2023-05-10T12:23:49;15.40;99.90
14737;DHT22;7459;53.590;10.062;2023-05-10T12:26:16;15.40;99.90
14737;DHT22;7459;53.590;10.062;2023-05-10T12:28:41;15.30;99.90
14737;DHT22;7459;53.590;10.062;2023-05-10T12:31:08;15.40;99.90
14737;DHT22;7459;53.590;10.062;2023-05-10T12:33:44;15.50;99.90
14737;DHT22;7459;53.590;10.062;2023-05-10T12:36:11;15.50;99.90
14737;DHT22;7459;53.590;10.062;2023-05-10T12:38:40;15.50;99.90
14737;DHT22;7459;53.590;10.062;2023-05-10T12:41:12;15.50;99.90
14737;DHT22;7459;53.590;10.062;2023-05-10T12:43:40;15.50;99.90
14737;DHT22;7459;53.590;10.062;2023-05-10T12:46:10;15.60;99.90
14737;DHT22;7459;53.590;10.062;2023-05-10T12:48:38;15.50;99.90
14737;DHT22;7459;53.590;10.062;2023-05-10T12:51:05;15.70;99.90
14737;DHT22;7459;53.590;10.062;2023-05-10T12:53:35;15.70;99.90
14737;DHT22;7459;53.590;10.062;2023-05-10T12:56:01;15.70;99.90
14737;DHT22;7459;53.590;10.062;2023-05-10T12:58:26;15.70;99.90
14737;DHT22;7459;53.590;10.062;2023-05-10T13:00:52;15.70;99.90
14737;DHT22;7459;53.590;10.062;2023-05-10T13:03:18;15.70;99.90
14737;DHT22;7459;53.590;10.062;2023-05-10T13:05:44;15.70;99.90
14737;DHT22;7459;53.590;10.062;2023-05-10T13:08:10;15.80;99.90
14737;DHT22;7459;53.590;10.062;2023-05-10T13:10:35;15.70;99.90
14737;DHT22;7459;53.590;10.062;2023-05-10T13:13:01;15.80;99.90
14737;DHT22;7459;53.590;10.062;2023-05-10T13:15:27;15.80;99.90
14737;DHT22;7459;53.590;10.062;2023-05-10T13:17:54;15.80;99.90
14737;DHT22;7459;53.590;10.062;2023-05-10T13:20:20;15.90;99.90
14737;DHT22;7459;53.590;10.062;2023-05-10T13:22:46;15.90;99.90
14737;DHT22;7459;53.590;10.062;2023-05-10T13:25:12;15.90;99.90
14737;DHT22;7459;53.590;10.062;2023-05-10T13:27:39;16.00;99.90
14737;DHT22;7459;53.590;10.062;2023-05-10T13:30:08;16.00;99.90
14737;DHT22;7459;53.590;10.062;2023-05-10T13:32:34;16.00;99.90
14737;DHT22;7459;53.590;10.062;2023-05-10T13:35:01;16.10;99.90
14737;DHT22;7459;53.590;10.062;2023-05-10T13:37:29;16.10;99.90
14737;DHT22;7459;53.590;10.062;2023-05-10T13:39:55;16.20;99.90
14737;DHT22;7459;53.590;10.062;2023-05-10T13:42:22;16.20;99.90
14737;DHT22;7459;53.590;10.062;2023-05-10T13:44:49;16.20;99.90
14737;DHT22;7459;53.590;10.062;2023-05-10T13:47:15;16.30;99.90
14737;DHT22;7459;53.590;10.062;2023-05-10T13:49:41;16.30;99.90
14737;DHT22;7459;53.590;10.062;2023-05-10T13:52:07;16.30;99.90
14737;DHT22;7459;53.590;10.062;2023-05-10T13:54:34;16.30;99.90
14737;DHT22;7459;53.590;10.062;2023-05-10T13:56:59;16.30;99.90
14737;DHT22;7459;53.590;10.062;2023-05-10T13:59:25;16.30;99.90
14737;DHT22;7459;53.590;10.062;2023-05-10T14:01:51;16.30;99.90
14737;DHT22;7459;53.590;10.062;2023-05-10T14:04:17;16.30;99.90
14737;DHT22;7459;53.590;10.062;2023-05-10T14:06:43;16.40;99.90
14737;DHT22;7459;53.590;10.062;2023-05-10T14:09:08;16.40;99.90
14737;DHT22;7459;53.590;10.062;2023-05-10T14:11:34;16.40;99.90
14737;DHT22;7459;53.590;10.062;2023-05-10T14:14:00;16.40;99.90
14737;DHT22;7459;53.590;10.062;2023-05-10T14:16:26;16.40;99.90
14737;DHT22;7459;53.590;10.062;2023-05-10T14:18:52;16.50;99.90
14737;DHT22;7459;53.590;10.062;2023-05-10T14:21:18;16.40;99.90
14737;DHT22;7459;53.590;10.062;2023-05-10T14:23:44;16.40;99.90
14737;DHT22;7459;53.590;10.062;2023-05-10T14:26:09;16.40;99.90
14737;DHT22;7459;53.590;10.062;2023-05-10T14:28:35;16.40;99.90
14737;DHT22;7459;53.590;10.062;2023-05-10T14:31:01;16.40;99.90
14737;DHT22;7459;53.590;10.062;2023-05-10T14:33:26;16.40;99.90
14737;DHT22;7459;53.590;10.062;2023-05-10T14:35:53;16.40;99.90
14737;DHT22;7459;53.590;10.062;2023-05-10T14:38:21;16.40;99.90
14737;DHT22;7459;53.590;10.062;2023-05-10T14:40:47;16.50;99.90
14737;DHT22;7459;53.590;10.062;2023-05-10T14:43:13;16.50;99.90
14737;DHT22;7459;53.590;10.062;2023-05-10T14:45:38;16.50;99.90
14737;DHT22;7459;53.590;10.062;2023-05-10T14:48:04;16.50;99.90
14737;DHT22;7459;53.590;10.062;2023-05-10T14:50:30;16.50;99.90
14737;DHT22;7459;53.590;10.062;2023-05-10T14:52:57;16.50;99.90
14737;DHT22;7459;53.590;10.062;2023-05-10T14:55:24;16.50;99.90
14737;DHT22;7459;53.590;10.062;2023-05-10T14:57:49;16.50;99.90
14737;DHT22;7459;53.590;10.062;2023-05-10T15:00:16;16.40;99.90
14737;DHT22;7459;53.590;10.062;2023-05-10T15:02:42;16.40;99.90
14737;DHT22;7459;53.590;10.062;2023-05-10T15:05:08;16.40;99.90
14737;DHT22;7459;53.590;10.062;2023-05-10T15:07:33;16.40;99.90
14737;DHT22;7459;53.590;10.062;2023-05-10T15:09:59;16.40;99.90
14737;DHT22;7459;53.590;10.062;2023-05-10T15:12:25;16.40;99.90
14737;DHT22;7459;53.590;10.062;2023-05-10T15:14:51;16.40;99.90
14737;DHT22;7459;53.590;10.062;2023-05-10T15:17:17;16.40;99.90
14737;DHT22;7459;53.590;10.062;2023-05-10T15:19:42;16.50;99.90
14737;DHT22;7459;53.590;10.062;2023-05-10T15:22:08;16.50;99.90
14737;DHT22;7459;53.590;10.062;2023-05-10T15:24:34;16.50;99.90
14737;DHT22;7459;53.590;10.062;2023-05-10T15:27:00;16.50;99.90
14737;DHT22;7459;53.590;10.062;2023-05-10T15:29:26;16.50;99.90
14737;DHT22;7459;53.590;10.062;2023-05-10T15:31:51;16.60;99.90
14737;DHT22;7459;53.590;10.062;2023-05-10T15:34:18;16.60;99.90
14737;DHT22;7459;53.590;10.062;2023-05-10T15:36:44;16.60;99.90
14737;DHT22;7459;53.590;10.062;2023-05-10T15:39:10;16.60;99.90
14737;DHT22;7459;53.590;10.062;2023-05-10T15:41:37;16.70;99.90
14737;DHT22;7459;53.590;10.062;2023-05-10T15:44:03;16.60;99.90
14737;DHT22;7459;53.590;10.062;2023-05-10T15:46:29;16.70;99.90
14737;DHT22;7459;53.590;10.062;2023-05-10T15:48:55;16.70;99.90
14737;DHT22;7459;53.590;10.062;2023-05-10T15:51:21;16.70;99.90
14737;DHT22;7459;53.590;10.062;2023-05-10T15:53:47;16.70;99.90
14737;DHT22;7459;53.590;10.062;2023-05-10T15:56:13;16.70;99.90
14737;DHT22;7459;53.590;10.062;2023-05-10T15:58:40;16.70;99.90
14737;DHT22;7459;53.590;10.062;2023-05-10T16:01:06;16.80;99.90
14737;DHT22;7459;53.590;10.062;2023-05-10T16:03:33;16.80;99.90
14737;DHT22;7459;53.590;10.062;2023-05-10T16:05:59;16.80;99.90
14737;DHT22;7459;53.590;10.062;2023-05-10T16:08:25;16.70;99.90
14737;DHT22;7459;53.590;10.062;2023-05-10T16:10:51;16.80;99.90
14737;DHT22;7459;53.590;10.062;2023-05-10T16:13:16;16.70;99.90
14737;DHT22;7459;53.590;10.062;2023-05-10T16:15:42;16.70;99.90